Terminal Aerodrome Forecast
Issued by NWS Upton, NY

Home | Current Version | Previous Version | Text Only | Print | Product List | Glossary On
Versions: 1 2 3 4 5 6 7 8 9 10 11 12 13 14 15 16 17 18 19 20 21 22 23 24 25 26 27 28 29 30 31 32
000
FTUS41 KOKX 012000 AAB
TAFJFK
TAF AMD
KJFK 012025Z 0120/0224 18010KT P6SM SCT050 BKN080
      TEMPO 0121/0122 -TSRA BKN050CB
     FM020100 21007KT P6SM FEW025 SCT050 BKN150
     FM020500 24004KT 6SM BR SCT020 SCT050 BKN150
      TEMPO 0208/0211 4SM BR
     FM021400 23007KT P6SM FEW020 SCT050
     FM021600 18010KT P6SM SCT050
     FM021900 18015KT P6SM SCT050=

USA.gov is the U.S. government's official web portal to all federal, state and local government web resources and services.